X  Cerrar Datos meteorológicos de aviación METAR     LEAL Alicante-Elche Miguel Hernández Airport
Temperatura
24°C Temperatura
15°C Punto de rocío
57% Humedad



Viento
13 KM/H
8 MPH
4 M/S
7 NUDO



180°
S
Condiciones actuales

Claro Claro
Presión 1015.92 (hPa) - 30 (inHg)
Visibilidad 6 (milla) - 9.7 (km)
Aeropuerto
Código de aeropuerto LEAL

localidad: Alicante-Elche Miguel Hernández Airport
Distancia: 30 (km)

Metar:
LEAL 251600Z 18007KT 110V230 CAVOK 24/15 Q1016 NOSIG

Hora: 25-05-2024 18:00 CEST